Kuantan, Malaysia
Current Conditions -  °F | °C
As of 6:00 AM on Thursday 23 Oct 2014 (Local Time) from WMKD Reporting Station
Light Rain Light Rain  
Wind Chill: 75°   Ceiling: 27000
Heat Index: 75°   Visibility: 4mi
Dew Point: 73°   Wind: 0mph
Humidity: 94%   Direction: NA
Pressure: 29.85"   Gusts: NA
Location:  3.82°N, 103.34°E
Report Text: WMKD 222200Z 00000KT 6000 -RA FEW002 SCT160 BKN270 24/23 Q1011 NOSIG
Loading
Personal Weather Stations






























Interactive Weather Map
Tropical Storm Tracking
New forecast layout! Learn more

10-Day Weather Forecast

Advertisements
Track Severe Weather on mobile